sensor_id;sensor_type;location;lat;lon;timestamp;pressure;altitude;pressure_sealevel;temperature;humidity
8398;BME280;4236;54.504;9.588;2023-02-28T00:01:33;103137.97;;;5.03;100.00
8398;BME280;4236;54.504;9.588;2023-02-28T00:04:00;103130.03;;;5.03;100.00
8398;BME280;4236;54.504;9.588;2023-02-28T00:06:29;103126.31;;;5.06;100.00
8398;BME280;4236;54.504;9.588;2023-02-28T00:08:56;103132.56;;;5.05;100.00
8398;BME280;4236;54.504;9.588;2023-02-28T00:11:25;103127.38;;;5.03;100.00
8398;BME280;4236;54.504;9.588;2023-02-28T00:13:53;103124.00;;;5.01;100.00
8398;BME280;4236;54.504;9.588;2023-02-28T00:16:22;103125.69;;;5.02;100.00
8398;BME280;4236;54.504;9.588;2023-02-28T00:18:50;103117.75;;;5.02;100.00
8398;BME280;4236;54.504;9.588;2023-02-28T00:21:18;103116.81;;;5.03;100.00
8398;BME280;4236;54.504;9.588;2023-02-28T00:23:47;103123.03;;;5.02;100.00
8398;BME280;4236;54.504;9.588;2023-02-28T00:26:15;103116.91;;;5.02;100.00
8398;BME280;4236;54.504;9.588;2023-02-28T00:28:46;103122.19;;;5.02;100.00
8398;BME280;4236;54.504;9.588;2023-02-28T00:31:14;103122.31;;;5.00;100.00
8398;BME280;4236;54.504;9.588;2023-02-28T00:33:42;103127.59;;;5.00;100.00
8398;BME280;4236;54.504;9.588;2023-02-28T00:36:11;103125.88;;;4.99;100.00
8398;BME280;4236;54.504;9.588;2023-02-28T00:38:40;103131.19;;;4.99;100.00
8398;BME280;4236;54.504;9.588;2023-02-28T00:41:08;103132.22;;;4.97;100.00
8398;BME280;4236;54.504;9.588;2023-02-28T00:43:39;103129.78;;;4.94;100.00
8398;BME280;4236;54.504;9.588;2023-02-28T00:46:08;103130.09;;;4.89;100.00
8398;BME280;4236;54.504;9.588;2023-02-28T00:48:36;103125.84;;;4.87;100.00
8398;BME280;4236;54.504;9.588;2023-02-28T00:51:04;103135.88;;;4.82;100.00
8398;BME280;4236;54.504;9.588;2023-02-28T00:53:32;103140.53;;;4.78;100.00
8398;BME280;4236;54.504;9.588;2023-02-28T00:56:00;103137.16;;;4.76;100.00
8398;BME280;4236;54.504;9.588;2023-02-28T00:58:28;103138.09;;;4.75;100.00
8398;BME280;4236;54.504;9.588;2023-02-28T01:00:56;103138.47;;;4.69;100.00
8398;BME280;4236;54.504;9.588;2023-02-28T01:03:25;103144.75;;;4.68;100.00
8398;BME280;4236;54.504;9.588;2023-02-28T01:05:53;103150.09;;;4.67;100.00
8398;BME280;4236;54.504;9.588;2023-02-28T01:08:21;103151.16;;;4.64;100.00
8398;BME280;4236;54.504;9.588;2023-02-28T01:10:49;103148.81;;;4.60;100.00
8398;BME280;4236;54.504;9.588;2023-02-28T01:13:17;103147.41;;;4.54;100.00
8398;BME280;4236;54.504;9.588;2023-02-28T01:15:49;103155.72;;;4.48;100.00
8398;BME280;4236;54.504;9.588;2023-02-28T01:18:17;103144.63;;;4.43;100.00
8398;BME280;4236;54.504;9.588;2023-02-28T01:20:46;103156.34;;;4.39;100.00
8398;BME280;4236;54.504;9.588;2023-02-28T01:23:14;103146.91;;;4.35;100.00
8398;BME280;4236;54.504;9.588;2023-02-28T01:25:42;103148.03;;;4.31;100.00
8398;BME280;4236;54.504;9.588;2023-02-28T01:28:09;103151.84;;;4.27;100.00
8398;BME280;4236;54.504;9.588;2023-02-28T01:30:37;103142.28;;;4.24;100.00
8398;BME280;4236;54.504;9.588;2023-02-28T01:33:05;103136.38;;;4.21;100.00
8398;BME280;4236;54.504;9.588;2023-02-28T01:35:33;103141.84;;;4.18;100.00
8398;BME280;4236;54.504;9.588;2023-02-28T01:38:03;103138.56;;;4.14;100.00
8398;BME280;4236;54.504;9.588;2023-02-28T01:40:47;103139.69;;;4.10;100.00
8398;BME280;4236;54.504;9.588;2023-02-28T01:43:20;103133.66;;;4.08;100.00
8398;BME280;4236;54.504;9.588;2023-02-28T01:45:48;103140.91;;;4.05;100.00
8398;BME280;4236;54.504;9.588;2023-02-28T01:48:15;103135.81;;;4.02;100.00
8398;BME280;4236;54.504;9.588;2023-02-28T01:50:45;103139.41;;;4.01;100.00
8398;BME280;4236;54.504;9.588;2023-02-28T01:53:19;103138.78;;;3.97;100.00
8398;BME280;4236;54.504;9.588;2023-02-28T01:55:51;103131.03;;;3.94;100.00
8398;BME280;4236;54.504;9.588;2023-02-28T01:58:21;103139.16;;;3.91;100.00
8398;BME280;4236;54.504;9.588;2023-02-28T02:00:49;103133.03;;;3.90;100.00
8398;BME280;4236;54.504;9.588;2023-02-28T02:03:18;103131.31;;;3.89;100.00
8398;BME280;4236;54.504;9.588;2023-02-28T02:05:47;103134.06;;;3.88;100.00
8398;BME280;4236;54.504;9.588;2023-02-28T02:08:18;103132.34;;;3.87;100.00
8398;BME280;4236;54.504;9.588;2023-02-28T02:10:49;103141.41;;;3.83;100.00
8398;BME280;4236;54.504;9.588;2023-02-28T02:13:34;103139.91;;;3.79;100.00
8398;BME280;4236;54.504;9.588;2023-02-28T02:16:12;103135.00;;;3.73;100.00
8398;BME280;4236;54.504;9.588;2023-02-28T02:18:48;103133.66;;;3.66;100.00
8398;BME280;4236;54.504;9.588;2023-02-28T02:24:47;103127.81;;;3.47;100.00
8398;BME280;4236;54.504;9.588;2023-02-28T02:27:22;103126.69;;;3.37;100.00
8398;BME280;4236;54.504;9.588;2023-02-28T02:30:06;103119.31;;;3.27;100.00
8398;BME280;4236;54.504;9.588;2023-02-28T02:33:01;103120.72;;;3.19;100.00
8398;BME280;4236;54.504;9.588;2023-02-28T02:35:36;103135.38;;;3.09;100.00
8398;BME280;4236;54.504;9.588;2023-02-28T02:38:11;103137.63;;;3.01;100.00
8398;BME280;4236;54.504;9.588;2023-02-28T02:40:44;103137.22;;;2.93;100.00
8398;BME280;4236;54.504;9.588;2023-02-28T02:43:17;103140.22;;;2.87;100.00
8398;BME280;4236;54.504;9.588;2023-02-28T02:45:50;103143.84;;;2.84;100.00
8398;BME280;4236;54.504;9.588;2023-02-28T02:48:24;103148.28;;;2.84;100.00
8398;BME280;4236;54.504;9.588;2023-02-28T02:50:57;103142.25;;;2.82;100.00
8398;BME280;4236;54.504;9.588;2023-02-28T02:53:30;103146.59;;;2.83;100.00
8398;BME280;4236;54.504;9.588;2023-02-28T02:56:01;103149.28;;;2.81;100.00
8398;BME280;4236;54.504;9.588;2023-02-28T02:58:33;103146.66;;;2.81;100.00
8398;BME280;4236;54.504;9.588;2023-02-28T03:01:07;103154.56;;;2.81;100.00
8398;BME280;4236;54.504;9.588;2023-02-28T03:03:37;103162.38;;;2.83;100.00
8398;BME280;4236;54.504;9.588;2023-02-28T03:06:06;103157.81;;;2.86;100.00
8398;BME280;4236;54.504;9.588;2023-02-28T03:08:36;103155.84;;;2.90;100.00
8398;BME280;4236;54.504;9.588;2023-02-28T03:11:06;103163.56;;;2.93;100.00
8398;BME280;4236;54.504;9.588;2023-02-28T03:13:54;103165.94;;;2.97;100.00
8398;BME280;4236;54.504;9.588;2023-02-28T03:16:35;103158.78;;;2.99;100.00
8398;BME280;4236;54.504;9.588;2023-02-28T03:19:23;103167.47;;;3.01;100.00
8398;BME280;4236;54.504;9.588;2023-02-28T03:22:03;103153.31;;;3.02;100.00
8398;BME280;4236;54.504;9.588;2023-02-28T03:24:41;103157.56;;;3.05;100.00
8398;BME280;4236;54.504;9.588;2023-02-28T03:27:17;103160.03;;;3.08;100.00
8398;BME280;4236;54.504;9.588;2023-02-28T03:29:50;103164.38;;;3.09;100.00
8398;BME280;4236;54.504;9.588;2023-02-28T03:32:24;103158.16;;;3.10;100.00
8398;BME280;4236;54.504;9.588;2023-02-28T03:34:58;103155.53;;;3.10;100.00
8398;BME280;4236;54.504;9.588;2023-02-28T03:37:32;103164.19;;;3.12;100.00
8398;BME280;4236;54.504;9.588;2023-02-28T03:40:06;103165.91;;;3.13;100.00
8398;BME280;4236;54.504;9.588;2023-02-28T03:42:36;103169.28;;;3.15;100.00
8398;BME280;4236;54.504;9.588;2023-02-28T03:45:11;103164.75;;;3.17;100.00
8398;BME280;4236;54.504;9.588;2023-02-28T03:47:42;103164.69;;;3.18;100.00
8398;BME280;4236;54.504;9.588;2023-02-28T03:50:17;103153.22;;;3.19;100.00
8398;BME280;4236;54.504;9.588;2023-02-28T03:52:50;103156.66;;;3.20;100.00
8398;BME280;4236;54.504;9.588;2023-02-28T03:55:19;103152.25;;;3.20;100.00
8398;BME280;4236;54.504;9.588;2023-02-28T03:57:55;103160.16;;;3.20;100.00
8398;BME280;4236;54.504;9.588;2023-02-28T04:00:27;103154.88;;;3.20;100.00
8398;BME280;4236;54.504;9.588;2023-02-28T04:02:56;103151.41;;;3.20;100.00
8398;BME280;4236;54.504;9.588;2023-02-28T04:05:24;103155.00;;;3.19;100.00
8398;BME280;4236;54.504;9.588;2023-02-28T04:07:54;103149.63;;;3.20;100.00
8398;BME280;4236;54.504;9.588;2023-02-28T04:10:21;103155.91;;;3.18;100.00
8398;BME280;4236;54.504;9.588;2023-02-28T04:12:49;103159.47;;;3.17;100.00
8398;BME280;4236;54.504;9.588;2023-02-28T04:15:17;103151.69;;;3.15;100.00
8398;BME280;4236;54.504;9.588;2023-02-28T04:17:51;103151.75;;;3.14;100.00
8398;BME280;4236;54.504;9.588;2023-02-28T04:20:18;103155.53;;;3.10;100.00
8398;BME280;4236;54.504;9.588;2023-02-28T04:22:46;103151.38;;;3.06;100.00
8398;BME280;4236;54.504;9.588;2023-02-28T04:25:15;103156.91;;;3.01;100.00
8398;BME280;4236;54.504;9.588;2023-02-28T04:27:43;103149.25;;;2.97;100.00
8398;BME280;4236;54.504;9.588;2023-02-28T04:30:11;103154.81;;;2.92;100.00
8398;BME280;4236;54.504;9.588;2023-02-28T04:32:39;103147.16;;;2.88;100.00
8398;BME280;4236;54.504;9.588;2023-02-28T04:35:08;103163.25;;;2.83;100.00
8398;BME280;4236;54.504;9.588;2023-02-28T04:37:37;103158.22;;;2.78;100.00
8398;BME280;4236;54.504;9.588;2023-02-28T04:40:06;103161.03;;;2.75;100.00
8398;BME280;4236;54.504;9.588;2023-02-28T04:42:36;103155.00;;;2.73;100.00
8398;BME280;4236;54.504;9.588;2023-02-28T04:45:04;103154.34;;;2.70;100.00
8398;BME280;4236;54.504;9.588;2023-02-28T04:47:32;103151.00;;;2.66;100.00
8398;BME280;4236;54.504;9.588;2023-02-28T04:49:59;103149.56;;;2.61;100.00
8398;BME280;4236;54.504;9.588;2023-02-28T04:52:27;103143.72;;;2.56;100.00
8398;BME280;4236;54.504;9.588;2023-02-28T04:54:55;103139.72;;;2.49;100.00
8398;BME280;4236;54.504;9.588;2023-02-28T04:57:23;103138.47;;;2.40;100.00
8398;BME280;4236;54.504;9.588;2023-02-28T04:59:52;103141.59;;;2.31;100.00
8398;BME280;4236;54.504;9.588;2023-02-28T05:02:19;103135.94;;;2.23;100.00
8398;BME280;4236;54.504;9.588;2023-02-28T05:04:47;103142.56;;;2.14;100.00
8398;BME280;4236;54.504;9.588;2023-02-28T05:07:15;103142.19;;;2.05;100.00
8398;BME280;4236;54.504;9.588;2023-02-28T05:09:43;103144.47;;;1.95;100.00
8398;BME280;4236;54.504;9.588;2023-02-28T05:12:10;103144.91;;;1.88;100.00
8398;BME280;4236;54.504;9.588;2023-02-28T05:14:38;103147.16;;;1.78;100.00
8398;BME280;4236;54.504;9.588;2023-02-28T05:17:08;103147.66;;;1.69;100.00
8398;BME280;4236;54.504;9.588;2023-02-28T05:19:36;103155.84;;;1.63;100.00
8398;BME280;4236;54.504;9.588;2023-02-28T05:22:03;103157.03;;;1.57;100.00
8398;BME280;4236;54.504;9.588;2023-02-28T05:24:31;103153.84;;;1.51;100.00
8398;BME280;4236;54.504;9.588;2023-02-28T05:26:59;103147.16;;;1.45;100.00
8398;BME280;4236;54.504;9.588;2023-02-28T05:29:27;103150.09;;;1.39;100.00
8398;BME280;4236;54.504;9.588;2023-02-28T05:31:55;103146.75;;;1.36;100.00
8398;BME280;4236;54.504;9.588;2023-02-28T05:34:24;103142.66;;;1.30;100.00
8398;BME280;4236;54.504;9.588;2023-02-28T05:36:52;103144.53;;;1.28;100.00
8398;BME280;4236;54.504;9.588;2023-02-28T05:39:19;103151.63;;;1.26;100.00
8398;BME280;4236;54.504;9.588;2023-02-28T05:41:48;103156.19;;;1.23;100.00
8398;BME280;4236;54.504;9.588;2023-02-28T05:44:15;103146.78;;;1.19;100.00
8398;BME280;4236;54.504;9.588;2023-02-28T05:46:43;103146.13;;;1.13;100.00
8398;BME280;4236;54.504;9.588;2023-02-28T05:49:11;103154.25;;;1.09;100.00
8398;BME280;4236;54.504;9.588;2023-02-28T05:51:40;103158.97;;;1.02;100.00
8398;BME280;4236;54.504;9.588;2023-02-28T05:54:07;103145.22;;;0.97;100.00
8398;BME280;4236;54.504;9.588;2023-02-28T05:56:37;103159.44;;;0.93;100.00
8398;BME280;4236;54.504;9.588;2023-02-28T05:59:06;103155.34;;;0.88;100.00
8398;BME280;4236;54.504;9.588;2023-02-28T06:01:35;103172.94;;;0.86;100.00
8398;BME280;4236;54.504;9.588;2023-02-28T06:04:05;103169.69;;;0.81;100.00
8398;BME280;4236;54.504;9.588;2023-02-28T06:06:37;103183.81;;;0.78;100.00
8398;BME280;4236;54.504;9.588;2023-02-28T06:09:07;103192.56;;;0.79;100.00
8398;BME280;4236;54.504;9.588;2023-02-28T06:11:35;103187.28;;;0.79;100.00
8398;BME280;4236;54.504;9.588;2023-02-28T06:14:05;103183.91;;;0.77;100.00
8398;BME280;4236;54.504;9.588;2023-02-28T06:16:34;103180.34;;;0.78;100.00
8398;BME280;4236;54.504;9.588;2023-02-28T06:19:03;103182.00;;;0.80;100.00
8398;BME280;4236;54.504;9.588;2023-02-28T06:21:31;103182.66;;;0.84;100.00
8398;BME280;4236;54.504;9.588;2023-02-28T06:23:59;103191.34;;;0.86;100.00
8398;BME280;4236;54.504;9.588;2023-02-28T06:26:29;103182.47;;;0.88;100.00
8398;BME280;4236;54.504;9.588;2023-02-28T06:28:57;103192.97;;;0.88;100.00
8398;BME280;4236;54.504;9.588;2023-02-28T06:31:25;103192.88;;;0.90;100.00
8398;BME280;4236;54.504;9.588;2023-02-28T06:33:53;103190.09;;;0.93;100.00
8398;BME280;4236;54.504;9.588;2023-02-28T06:36:21;103194.44;;;0.94;100.00
8398;BME280;4236;54.504;9.588;2023-02-28T06:38:49;103195.13;;;0.97;100.00
8398;BME280;4236;54.504;9.588;2023-02-28T06:41:23;103203.78;;;0.99;100.00
8398;BME280;4236;54.504;9.588;2023-02-28T06:43:52;103207.28;;;1.00;100.00
8398;BME280;4236;54.504;9.588;2023-02-28T06:46:20;103200.09;;;1.03;100.00
8398;BME280;4236;54.504;9.588;2023-02-28T06:48:48;103207.75;;;1.08;100.00
8398;BME280;4236;54.504;9.588;2023-02-28T06:51:18;103208.44;;;1.11;100.00
8398;BME280;4236;54.504;9.588;2023-02-28T06:53:48;103215.25;;;1.16;100.00
8398;BME280;4236;54.504;9.588;2023-02-28T06:56:18;103208.84;;;1.21;100.00
8398;BME280;4236;54.504;9.588;2023-02-28T06:58:48;103211.31;;;1.24;100.00
8398;BME280;4236;54.504;9.588;2023-02-28T07:01:18;103213.66;;;1.30;100.00
8398;BME280;4236;54.504;9.588;2023-02-28T07:03:46;103218.50;;;1.38;100.00
8398;BME280;4236;54.504;9.588;2023-02-28T07:06:18;103212.94;;;1.44;100.00
8398;BME280;4236;54.504;9.588;2023-02-28T07:08:46;103226.56;;;1.52;100.00
8398;BME280;4236;54.504;9.588;2023-02-28T07:11:13;103226.94;;;1.61;100.00
8398;BME280;4236;54.504;9.588;2023-02-28T07:13:41;103233.44;;;1.72;100.00
8398;BME280;4236;54.504;9.588;2023-02-28T07:16:10;103224.06;;;1.83;100.00
8398;BME280;4236;54.504;9.588;2023-02-28T07:18:39;103224.16;;;1.97;100.00
8398;BME280;4236;54.504;9.588;2023-02-28T07:21:09;103223.13;;;2.17;100.00
8398;BME280;4236;54.504;9.588;2023-02-28T07:23:37;103224.63;;;2.38;100.00
8398;BME280;4236;54.504;9.588;2023-02-28T07:26:06;103231.25;;;2.61;100.00
8398;BME280;4236;54.504;9.588;2023-02-28T07:28:37;103235.66;;;2.92;100.00
8398;BME280;4236;54.504;9.588;2023-02-28T07:31:06;103231.19;;;3.23;100.00
8398;BME280;4236;54.504;9.588;2023-02-28T07:33:34;103229.97;;;3.59;100.00
8398;BME280;4236;54.504;9.588;2023-02-28T07:36:04;103233.63;;;4.00;100.00
8398;BME280;4236;54.504;9.588;2023-02-28T07:38:33;103235.00;;;4.34;100.00
8398;BME280;4236;54.504;9.588;2023-02-28T07:41:01;103234.03;;;4.63;100.00
8398;BME280;4236;54.504;9.588;2023-02-28T07:43:30;103240.38;;;4.87;100.00
8398;BME280;4236;54.504;9.588;2023-02-28T07:46:02;103236.00;;;5.00;100.00
8398;BME280;4236;54.504;9.588;2023-02-28T07:48:30;103239.56;;;5.14;100.00
8398;BME280;4236;54.504;9.588;2023-02-28T07:50:59;103233.41;;;5.13;100.00
8398;BME280;4236;54.504;9.588;2023-02-28T07:53:28;103228.41;;;5.09;100.00
8398;BME280;4236;54.504;9.588;2023-02-28T07:55:56;103231.25;;;5.06;100.00
8398;BME280;4236;54.504;9.588;2023-02-28T07:58:26;103233.16;;;5.03;100.00
8398;BME280;4236;54.504;9.588;2023-02-28T08:00:53;103237.00;;;5.12;100.00
8398;BME280;4236;54.504;9.588;2023-02-28T08:03:22;103231.50;;;5.15;100.00
8398;BME280;4236;54.504;9.588;2023-02-28T08:05:50;103232.44;;;5.14;100.00
8398;BME280;4236;54.504;9.588;2023-02-28T08:08:18;103218.09;;;5.18;100.00
8398;BME280;4236;54.504;9.588;2023-02-28T08:10:48;103219.19;;;5.28;100.00
8398;BME280;4236;54.504;9.588;2023-02-28T08:13:15;103222.81;;;5.40;100.00
8398;BME280;4236;54.504;9.588;2023-02-28T08:15:43;103223.88;;;5.50;100.00
8398;BME280;4236;54.504;9.588;2023-02-28T08:18:11;103225.03;;;5.58;100.00
8398;BME280;4236;54.504;9.588;2023-02-28T08:20:39;103226.31;;;5.66;100.00
8398;BME280;4236;54.504;9.588;2023-02-28T08:23:06;103224.56;;;5.79;100.00
8398;BME280;4236;54.504;9.588;2023-02-28T08:25:34;103222.53;;;5.82;100.00
8398;BME280;4236;54.504;9.588;2023-02-28T08:28:03;103221.31;;;5.88;100.00
8398;BME280;4236;54.504;9.588;2023-02-28T08:30:31;103226.38;;;5.91;100.00
8398;BME280;4236;54.504;9.588;2023-02-28T08:32:59;103228.41;;;6.00;100.00
8398;BME280;4236;54.504;9.588;2023-02-28T08:35:28;103235.59;;;6.10;100.00
8398;BME280;4236;54.504;9.588;2023-02-28T08:37:55;103231.34;;;6.21;100.00
8398;BME280;4236;54.504;9.588;2023-02-28T08:40:24;103226.56;;;6.26;100.00
8398;BME280;4236;54.504;9.588;2023-02-28T08:42:51;103234.50;;;6.38;100.00
8398;BME280;4236;54.504;9.588;2023-02-28T08:45:20;103221.31;;;6.49;100.00
8398;BME280;4236;54.504;9.588;2023-02-28T08:47:48;103221.28;;;6.62;100.00
8398;BME280;4236;54.504;9.588;2023-02-28T08:50:18;103225.94;;;6.71;100.00
8398;BME280;4236;54.504;9.588;2023-02-28T08:52:46;103224.88;;;6.74;100.00
8398;BME280;4236;54.504;9.588;2023-02-28T08:55:14;103225.13;;;6.82;100.00
8398;BME280;4236;54.504;9.588;2023-02-28T08:57:41;103223.13;;;6.85;100.00
8398;BME280;4236;54.504;9.588;2023-02-28T09:00:10;103232.19;;;6.94;100.00
8398;BME280;4236;54.504;9.588;2023-02-28T09:02:41;103234.91;;;7.05;100.00
8398;BME280;4236;54.504;9.588;2023-02-28T09:05:10;103238.56;;;6.67;100.00
8398;BME280;4236;54.504;9.588;2023-02-28T09:07:38;103237.78;;;6.78;100.00
8398;BME280;4236;54.504;9.588;2023-02-28T09:10:06;103231.03;;;6.98;100.00
8398;BME280;4236;54.504;9.588;2023-02-28T09:12:34;103241.19;;;7.04;100.00
8398;BME280;4236;54.504;9.588;2023-02-28T09:15:02;103240.38;;;7.14;100.00
8398;BME280;4236;54.504;9.588;2023-02-28T09:17:30;103249.16;;;7.28;100.00
8398;BME280;4236;54.504;9.588;2023-02-28T09:19:59;103240.75;;;7.10;100.00
8398;BME280;4236;54.504;9.588;2023-02-28T09:22:27;103242.50;;;7.22;100.00
8398;BME280;4236;54.504;9.588;2023-02-28T09:24:54;103244.28;;;7.21;100.00
8398;BME280;4236;54.504;9.588;2023-02-28T09:27:22;103256.06;;;7.41;100.00
8398;BME280;4236;54.504;9.588;2023-02-28T09:29:50;103245.28;;;7.55;100.00
8398;BME280;4236;54.504;9.588;2023-02-28T09:32:18;103253.66;;;7.73;100.00
8398;BME280;4236;54.504;9.588;2023-02-28T09:34:46;103247.97;;;7.89;100.00
8398;BME280;4236;54.504;9.588;2023-02-28T09:37:15;103249.09;;;7.97;100.00
8398;BME280;4236;54.504;9.588;2023-02-28T09:39:43;103246.69;;;7.94;100.00
8398;BME280;4236;54.504;9.588;2023-02-28T09:42:18;103247.75;;;7.92;100.00
8398;BME280;4236;54.504;9.588;2023-02-28T09:44:50;103251.88;;;7.96;100.00
8398;BME280;4236;54.504;9.588;2023-02-28T09:47:25;103256.00;;;8.00;100.00
8398;BME280;4236;54.504;9.588;2023-02-28T09:49:57;103255.47;;;7.95;100.00
8398;BME280;4236;54.504;9.588;2023-02-28T09:52:30;103254.31;;;8.21;100.00
8398;BME280;4236;54.504;9.588;2023-02-28T09:55:04;103258.81;;;8.31;100.00
8398;BME280;4236;54.504;9.588;2023-02-28T09:57:43;103254.47;;;8.42;100.00
8398;BME280;4236;54.504;9.588;2023-02-28T10:00:15;103250.81;;;8.43;100.00
8398;BME280;4236;54.504;9.588;2023-02-28T10:03:17;103255.03;;;8.23;100.00
8398;BME280;4236;54.504;9.588;2023-02-28T10:05:52;103251.06;;;8.17;100.00
8398;BME280;4236;54.504;9.588;2023-02-28T10:08:26;103259.66;;;8.32;100.00
8398;BME280;4236;54.504;9.588;2023-02-28T10:10:56;103257.84;;;8.44;100.00
8398;BME280;4236;54.504;9.588;2023-02-28T10:13:32;103250.00;;;8.42;100.00
8398;BME280;4236;54.504;9.588;2023-02-28T10:16:06;103254.31;;;8.54;100.00
8398;BME280;4236;54.504;9.588;2023-02-28T10:18:41;103252.66;;;8.53;100.00
8398;BME280;4236;54.504;9.588;2023-02-28T10:21:17;103254.00;;;8.48;100.00
8398;BME280;4236;54.504;9.588;2023-02-28T10:23:48;103250.84;;;8.31;100.00
8398;BME280;4236;54.504;9.588;2023-02-28T10:26:17;103256.00;;;8.22;100.00
8398;BME280;4236;54.504;9.588;2023-02-28T10:28:46;103265.66;;;8.23;100.00
8398;BME280;4236;54.504;9.588;2023-02-28T10:31:17;103260.75;;;8.29;100.00
8398;BME280;4236;54.504;9.588;2023-02-28T10:33:45;103257.09;;;8.19;100.00
8398;BME280;4236;54.504;9.588;2023-02-28T10:36:15;103256.16;;;8.43;100.00
8398;BME280;4236;54.504;9.588;2023-02-28T10:38:45;103246.84;;;8.59;100.00
8398;BME280;4236;54.504;9.588;2023-02-28T10:41:16;103243.31;;;8.70;100.00
8398;BME280;4236;54.504;9.588;2023-02-28T10:43:44;103246.94;;;8.80;100.00
8398;BME280;4236;54.504;9.588;2023-02-28T10:46:15;103252.13;;;8.70;100.00
8398;BME280;4236;54.504;9.588;2023-02-28T10:49:02;103244.03;;;8.61;100.00
8398;BME280;4236;54.504;9.588;2023-02-28T10:51:36;103238.97;;;8.58;100.00
8398;BME280;4236;54.504;9.588;2023-02-28T10:54:05;103241.75;;;8.67;100.00
8398;BME280;4236;54.504;9.588;2023-02-28T10:56:34;103245.59;;;8.63;100.00
8398;BME280;4236;54.504;9.588;2023-02-28T10:59:03;103238.63;;;8.62;100.00
8398;BME280;4236;54.504;9.588;2023-02-28T11:01:48;103239.22;;;8.55;100.00
8398;BME280;4236;54.504;9.588;2023-02-28T11:04:32;103238.38;;;8.54;100.00
8398;BME280;4236;54.504;9.588;2023-02-28T11:07:04;103247.44;;;8.63;100.00
8398;BME280;4236;54.504;9.588;2023-02-28T11:09:33;103242.13;;;8.63;100.00
8398;BME280;4236;54.504;9.588;2023-02-28T11:12:05;103238.47;;;8.64;100.00
8398;BME280;4236;54.504;9.588;2023-02-28T11:14:36;103240.03;;;8.77;100.00
8398;BME280;4236;54.504;9.588;2023-02-28T11:17:13;103230.47;;;8.86;100.00
8398;BME280;4236;54.504;9.588;2023-02-28T11:19:45;103229.06;;;9.03;100.00
8398;BME280;4236;54.504;9.588;2023-02-28T11:22:18;103223.47;;;9.17;100.00
8398;BME280;4236;54.504;9.588;2023-02-28T11:24:49;103221.31;;;9.11;100.00
8398;BME280;4236;54.504;9.588;2023-02-28T11:27:44;103224.13;;;9.30;100.00
8398;BME280;4236;54.504;9.588;2023-02-28T11:30:24;103228.25;;;9.55;100.00
8398;BME280;4236;54.504;9.588;2023-02-28T11:32:52;103216.06;;;9.41;100.00
8398;BME280;4236;54.504;9.588;2023-02-28T11:35:23;103219.66;;;9.51;100.00
8398;BME280;4236;54.504;9.588;2023-02-28T11:37:53;103213.16;;;9.44;100.00
8398;BME280;4236;54.504;9.588;2023-02-28T11:40:28;103203.34;;;9.65;100.00
8398;BME280;4236;54.504;9.588;2023-02-28T11:43:04;103207.03;;;9.74;100.00
8398;BME280;4236;54.504;9.588;2023-02-28T11:45:42;103198.59;;;9.89;100.00
8398;BME280;4236;54.504;9.588;2023-02-28T11:48:18;103204.47;;;10.14;100.00
8398;BME280;4236;54.504;9.588;2023-02-28T11:50:54;103190.66;;;10.29;100.00
8398;BME280;4236;54.504;9.588;2023-02-28T11:56:23;103196.13;;;10.07;98.08
8398;BME280;4236;54.504;9.588;2023-02-28T11:59:12;103189.44;;;9.62;100.00
8398;BME280;4236;54.504;9.588;2023-02-28T12:02:05;103190.63;;;9.27;100.00
8398;BME280;4236;54.504;9.588;2023-02-28T12:04:46;103190.09;;;9.33;100.00
8398;BME280;4236;54.504;9.588;2023-02-28T12:07:25;103186.47;;;9.55;100.00
8398;BME280;4236;54.504;9.588;2023-02-28T12:10:03;103179.97;;;9.69;97.38
8398;BME280;4236;54.504;9.588;2023-02-28T12:12:42;103175.56;;;9.58;96.86
8398;BME280;4236;54.504;9.588;2023-02-28T12:15:24;103180.34;;;9.85;100.00
8398;BME280;4236;54.504;9.588;2023-02-28T12:18:23;103179.63;;;10.13;99.59
8398;BME280;4236;54.504;9.588;2023-02-28T12:21:01;103173.41;;;10.03;99.16
8398;BME280;4236;54.504;9.588;2023-02-28T12:23:46;103173.66;;;10.21;100.00
8398;BME280;4236;54.504;9.588;2023-02-28T12:26:19;103163.47;;;10.45;100.00
8398;BME280;4236;54.504;9.588;2023-02-28T12:28:53;103163.19;;;10.57;99.66
8398;BME280;4236;54.504;9.588;2023-02-28T12:31:29;103157.03;;;10.67;96.67
8398;BME280;4236;54.504;9.588;2023-02-28T12:34:01;103152.84;;;10.74;96.36
8398;BME280;4236;54.504;9.588;2023-02-28T12:36:30;103152.41;;;10.78;93.39
8398;BME280;4236;54.504;9.588;2023-02-28T12:39:02;103158.31;;;10.91;93.58
8398;BME280;4236;54.504;9.588;2023-02-28T12:41:36;103146.22;;;10.97;93.03
8398;BME280;4236;54.504;9.588;2023-02-28T12:44:11;103141.88;;;11.05;91.80
8398;BME280;4236;54.504;9.588;2023-02-28T12:46:43;103143.28;;;11.09;91.10
8398;BME280;4236;54.504;9.588;2023-02-28T12:49:16;103137.38;;;10.96;90.98
8398;BME280;4236;54.504;9.588;2023-02-28T12:51:45;103138.50;;;10.94;90.79
8398;BME280;4236;54.504;9.588;2023-02-28T12:54:21;103144.00;;;11.02;94.44
8398;BME280;4236;54.504;9.588;2023-02-28T12:56:57;103133.16;;;11.03;90.80
8398;BME280;4236;54.504;9.588;2023-02-28T12:59:35;103125.28;;;11.11;90.67
8398;BME280;4236;54.504;9.588;2023-02-28T13:05:49;103136.69;;;11.04;87.71
8398;BME280;4236;54.504;9.588;2023-02-28T13:08:48;103131.91;;;10.88;89.82
8398;BME280;4236;54.504;9.588;2023-02-28T13:11:25;103131.22;;;10.77;91.47
8398;BME280;4236;54.504;9.588;2023-02-28T13:14:00;103129.81;;;10.63;90.86
8398;BME280;4236;54.504;9.588;2023-02-28T13:16:50;103121.50;;;10.47;90.71
8398;BME280;4236;54.504;9.588;2023-02-28T13:19:20;103112.09;;;10.62;94.23
8398;BME280;4236;54.504;9.588;2023-02-28T13:21:51;103115.31;;;10.46;88.41
8398;BME280;4236;54.504;9.588;2023-02-28T13:24:41;103111.31;;;10.22;89.03
8398;BME280;4236;54.504;9.588;2023-02-28T13:27:32;103117.59;;;10.11;92.26
8398;BME280;4236;54.504;9.588;2023-02-28T13:30:02;103117.69;;;10.00;91.29
8398;BME280;4236;54.504;9.588;2023-02-28T13:33:23;103115.97;;;9.89;93.96
8398;BME280;4236;54.504;9.588;2023-02-28T13:36:07;103112.06;;;9.63;97.92
8398;BME280;4236;54.504;9.588;2023-02-28T13:38:38;103114.81;;;9.82;99.52
8398;BME280;4236;54.504;9.588;2023-02-28T13:41:44;103112.13;;;9.73;96.51
8398;BME280;4236;54.504;9.588;2023-02-28T13:44:14;103114.03;;;9.71;97.18